»·PEaware :: WAT169 KSNA-KLAS

WAT169 :: KSNA-KLAS

FLIGHT INFORMATION

Flight Status: Arrived
Operator:
Walker Air Transport
More flights by this operator :: More flights under this callsign
Pilot: Marty P. (27464)
Aircraft: Unknown
(A21N)
More flights by this aircraft type
Origin: KSNA John Wayne-Orange Co
United States
Destination: KLAS Harry Reid Intl
United States
More flights between these airports :: More routes between these airports
Route: FINZZ3 MISEN RNDRZ1
File this flight plan on PilotEdge
Remarks:
Altitude:
(Current/Filed)
27,000ft
Speed:
(Current/Filed)
480kts
Departed: 28-Nov-21 08:24 PM
Arrived: 28-Nov-21 09:10 PM
Distance/Time
Traveled:
197nm/0:46
Distance/Time
To Go:
Arrived

Flight Plot

Page will automatically refresh every two minutes.

Flight plan parsing failed; only flown route is shown


Map Options




Map Legend


Flown Route
Filed Route
Departure Airport
Arrival Airport
Navaid (VOR, NDB)
Fix

Horizontal Profiles

Position Reports

Time Latitude Longitude Heading Altitude Ground
Speed
28-Nov-21 20:02 33.675374 -117.864885 118 48ft 0kts
28-Nov-21 20:03 33.675366 -117.864867 118 48ft 0kts
28-Nov-21 20:04 33.675358 -117.864850 118 48ft 0kts
28-Nov-21 20:05 33.675352 -117.864835 118 48ft 0kts
28-Nov-21 20:06 33.675352 -117.864835 118 48ft 0kts
28-Nov-21 20:07 33.675352 -117.864835 118 48ft 0kts
28-Nov-21 20:08 33.675352 -117.864835 118 48ft 0kts
28-Nov-21 20:09 33.675352 -117.864835 118 48ft 0kts
28-Nov-21 20:10 33.675352 -117.864835 118 48ft 0kts
28-Nov-21 20:11 33.675352 -117.864835 118 48ft 0kts
28-Nov-21 20:12 33.675352 -117.864835 118 48ft 0kts
28-Nov-21 20:13 33.675352 -117.864835 118 48ft 0kts
28-Nov-21 20:14 33.675352 -117.864836 118 48ft 0kts
28-Nov-21 20:15 33.675352 -117.864836 118 48ft 0kts
28-Nov-21 20:16 33.675352 -117.864836 118 48ft 0kts
28-Nov-21 20:17 33.675563 -117.865321 96 49ft 2kts
28-Nov-21 20:18 33.675372 -117.865689 27 49ft 0kts
28-Nov-21 20:19 33.675372 -117.865689 27 49ft 0kts
28-Nov-21 20:20 33.676616 -117.864888 27 48ft 16kts
28-Nov-21 20:21 33.680574 -117.862923 304 50ft 4kts
28-Nov-21 20:22 33.680734 -117.863274 298 46ft 9kts
28-Nov-21 20:23 33.676995 -117.868025 208 52ft 105kts
28-Nov-21 20:24 33.641174 -117.890398 198 2482ft 170kts
28-Nov-21 20:25 33.583804 -117.898278 188 4957ft 265kts
28-Nov-21 20:26 33.527922 -117.948336 223 6097ft 262kts
28-Nov-21 20:27 33.497156 -118.021044 295 8753ft 267kts
28-Nov-21 20:28 33.546907 -118.087271 315 11258ft 278kts
28-Nov-21 20:29 33.620915 -118.112183 26 12400ft 327kts
28-Nov-21 20:30 33.704289 -118.062492 27 14697ft 342kts
28-Nov-21 20:31 33.791500 -118.011566 27 16812ft 355kts
28-Nov-21 20:32 33.881474 -117.958934 28 18728ft 367kts
28-Nov-21 20:33 33.966767 -117.889389 39 20536ft 375kts
28-Nov-21 20:34 34.050876 -117.812216 39 22208ft 384kts
28-Nov-21 20:35 34.127123 -117.721465 53 23760ft 388kts
28-Nov-21 20:36 34.195772 -117.619488 53 25217ft 395kts
28-Nov-21 20:37 34.265456 -117.515782 53 26554ft 401kts
28-Nov-21 20:38 34.336236 -117.410027 53 27298ft 415kts
28-Nov-21 20:39 34.411892 -117.296411 53 27303ft 452kts
28-Nov-21 20:40 34.493440 -117.173826 53 27301ft 476kts
28-Nov-21 20:41 34.577122 -117.049128 52 27304ft 477kts
28-Nov-21 20:42 34.662045 -116.925631 52 27320ft 477kts
28-Nov-21 20:43 34.746824 -116.801735 52 27333ft 476kts
28-Nov-21 20:44 34.831681 -116.678062 49 27321ft 477kts
28-Nov-21 20:45 34.930411 -116.569881 40 27283ft 481kts
28-Nov-21 20:46 35.035346 -116.468724 39 27279ft 481kts
28-Nov-21 20:47 35.135150 -116.361255 47 27278ft 479kts
28-Nov-21 20:48 35.225850 -116.243843 48 25934ft 469kts
28-Nov-21 20:49 35.310863 -116.127463 49 23738ft 451kts
28-Nov-21 20:50 35.392598 -116.015005 49 21424ft 439kts
28-Nov-21 20:51 35.472783 -115.904539 49 19800ft 431kts
28-Nov-21 20:52 35.547995 -115.800654 49 19283ft 377kts
28-Nov-21 20:53 35.612511 -115.711859 48 18974ft 324kts
28-Nov-21 20:54 35.672188 -115.631414 48 16544ft 313kts
28-Nov-21 20:55 35.731106 -115.555711 38 14063ft 302kts
28-Nov-21 20:56 35.801792 -115.504014 29 12523ft 295kts
28-Nov-21 20:57 35.873295 -115.454097 29 12515ft 295kts
28-Nov-21 20:58 35.943718 -115.404782 29 11471ft 288kts
28-Nov-21 20:59 36.009022 -115.350143 61 10972ft 283kts
28-Nov-21 21:00 36.010574 -115.255441 94 9023ft 275kts
28-Nov-21 21:01 36.005372 -115.169881 93 9010ft 236kts
28-Nov-21 21:02 36.000722 -115.089112 93 8782ft 232kts
28-Nov-21 21:03 35.998691 -115.010356 89 8010ft 228kts
28-Nov-21 21:04 36.009566 -114.937866 39 5865ft 222kts
28-Nov-21 21:05 36.065072 -114.936254 314 4993ft 202kts
28-Nov-21 21:06 36.074036 -114.990698 268 4200ft 190kts
28-Nov-21 21:07 36.073683 -115.050037 270 3264ft 156kts
28-Nov-21 21:08 36.073659 -115.104374 268 2445ft 156kts
28-Nov-21 21:09 36.074111 -115.144475 293 2100ft 13kts
28-Nov-21 21:10 36.074858 -115.146177 307 2104ft 7kts
28-Nov-21 21:11 36.078867 -115.147280 342 2102ft 16kts
28-Nov-21 21:12 36.080915 -115.147946 67 2099ft 4kts
28-Nov-21 21:13 36.081007 -115.147686 66 2097ft 0kts

Navigation Log

Ident Type
Flight plan parsing failed, navigation log unavailable